This is the latest recevied weather packets stored in our database for station/object SPRFLD. If no packets are shown the sender has not sent any weather packets the latest 10 day(s).
| Time | Temp. | Humidity | Pressure | Rain* | Wind** | Luminosity | Snow |
|---|---|---|---|---|---|---|---|
| 1777438089 | 8.89° C | 69% | 1023.1 hPa | 0 mm | - | - | - |
| 1777437486 | 9.44° C | 68% | 1023 hPa | 0 mm | - | - | - |
| 1777436283 | 9.44° C | 67% | 1022.8 hPa | 0 mm | - | - | - |
| 1777433902 | 10° C | 63% | 1022.5 hPa | 0 mm | - | - | - |
| 1777433301 | 10.56° C | 62% | 1022.6 hPa | 0 mm | - | - | - |
| 1777427908 | 13.33° C | 53% | 1022.4 hPa | 0 mm | - | - | - |
| 1777426122 | 13.89° C | 53% | 1022.3 hPa | 0 mm | - | - | - |
| 1777424298 | 15.56° C | 49% | 1022.3 hPa | 0 mm | - | - | - |
| 1777423095 | 17.22° C | 47% | 1022.2 hPa | 0 mm | - | - | - |
| 1777421890 | 17.22° C | 47% | 1022.3 hPa | 0 mm | - | - | - |
| 1777417120 | 16.11° C | 52% | 1022.7 hPa | 0 mm | - | - | - |
| 1777413489 | 14.44° C | 55% | 1023.2 hPa | 0 mm | - | - | - |
| 1777412285 | 14.44° C | 60% | 1023.3 hPa | 0 mm | - | - | - |
| 1777409910 | 13.89° C | 60% | 1023.6 hPa | 0 mm | - | - | - |
| 1777407501 | 12.78° C | 64% | 1023.6 hPa | 0 mm | - | - | - |
| 1777406298 | 13.33° C | 62% | 1023.8 hPa | 0 mm | - | - | - |
| 1777405093 | 11.67° C | 67% | 1023.8 hPa | 0 mm | - | - | - |
| 1777400351 | 10° C | 80% | 1023.9 hPa | 0 mm | - | - | - |
| 1777399707 | 10° C | 80% | 1023.9 hPa | 0 mm | - | - | - |
| 1777399105 | 9.44° C | 81% | 1023.9 hPa | 0 mm | - | - | - |
| 1777397925 | 8.89° C | 85% | 1023.9 hPa | 0 mm | - | - | - |
| 1777396096 | 8.33° C | 88% | 1023.6 hPa | 0 mm | - | - | - |
| 1777386493 | 6.11° C | 92% | 1022.7 hPa | 0 mm | - | - | - |
| 1777379301 | 6.11° C | 92% | 1022.1 hPa | 0 mm | - | - | - |
| 1777378697 | 6.11° C | 92% | 1022 hPa | 0 mm | - | - | - |
* Rain latest hour (hover to see other rain measurements)
** Current wind speed in m/s (hover to see current wind gust speed)